Time;durP1;ratioP1;P1;durP2;ratioP2;P2;SDS_P1;SDS_P2;PMS_P1;PMS_P2;Temp;Humidity;BMP_temperature;BMP_pressure;BME280_temperature;BME280_humidity;BME280_pressure;Samples;Min_cycle;Max_cycle;Signal;HPM_P1;HPM_P2
2022/02/11 00:02:22;;;;;;;7.27;3.60;;;4.70;99.90;;;;;;5127029;27;20280;-80
2022/02/11 00:05:30;;;;;;;7.50;4.53;;;4.70;99.90;;;;;;5136510;27;20545;-83
2022/02/11 00:07:58;;;;;;;7.33;3.80;;;4.50;99.90;;;;;;5136472;27;20489;-80
2022/02/11 00:10:30;;;;;;;10.50;4.03;;;4.50;99.90;;;;;;5134903;27;20210;-82
2022/02/11 00:12:59;;;;;;;9.13;4.10;;;4.50;99.90;;;;;;5135780;27;20444;-85
2022/02/11 00:15:40;;;;;;;7.77;3.87;;;4.40;99.90;;;;;;5136056;27;20446;-83
2022/02/11 00:18:10;;;;;;;7.83;4.20;;;4.30;99.90;;;;;;5135678;27;20470;-84
2022/02/11 00:20:39;;;;;;;9.33;3.73;;;4.30;99.90;;;;;;5136170;27;20440;-82
2022/02/11 00:23:08;;;;;;;8.30;3.60;;;4.30;99.90;;;;;;5135834;27;20467;-81
2022/02/11 00:25:42;;;;;;;13.17;3.93;;;4.30;99.90;;;;;;5135554;27;20445;-81
2022/02/11 00:31:34;;;;;;;6.77;3.20;;;4.30;99.90;;;;;;5135627;27;20420;-83
2022/02/11 00:34:07;;;;;;;9.93;3.57;;;4.30;99.90;;;;;;5135500;27;20452;-82
2022/02/11 00:36:42;;;;;;;8.77;3.43;;;4.30;99.90;;;;;;5136138;27;20432;-87
2022/02/11 00:39:43;;;;;;;9.83;3.63;;;4.40;99.90;;;;;;5135396;27;20918;-83
2022/02/11 01:02:10;;;;;;;11.70;3.73;;;4.30;99.90;;;;;;5135642;27;20414;-83
2022/02/11 01:04:28;;;;;;;10.57;3.10;;;4.20;99.90;;;;;;5135226;27;20602;-88
2022/02/11 01:06:56;;;;;;;7.17;3.10;;;4.20;99.90;;;;;;5135356;27;20432;-85
2022/02/11 01:09:23;;;;;;;12.67;3.07;;;4.30;99.90;;;;;;5135144;27;20444;-84
2022/02/11 01:11:52;;;;;;;8.40;3.20;;;4.30;99.90;;;;;;5134442;27;20427;-84
2022/02/11 01:14:33;;;;;;;7.03;2.90;;;4.30;99.90;;;;;;5135307;27;20230;-81
2022/02/11 01:17:09;;;;;;;10.37;3.33;;;4.20;99.90;;;;;;5134470;27;20428;-85
2022/02/11 01:19:47;;;;;;;10.67;3.00;;;4.30;99.90;;;;;;5134823;27;20423;-85
2022/02/11 01:22:25;;;;;;;9.90;3.17;;;4.30;99.90;;;;;;5134975;27;20451;-88
2022/02/11 01:27:44;;;;;;;6.60;2.93;;;4.20;99.90;;;;;;5132850;27;20916;-84
2022/02/11 01:30:37;;;;;;;12.23;3.73;;;4.10;99.90;;;;;;5134571;27;20945;-84
2022/02/11 01:33:31;;;;;;;7.90;3.03;;;4.20;99.90;;;;;;5134654;27;20443;-87
2022/02/11 01:36:08;;;;;;;12.07;2.90;;;4.10;99.90;;;;;;5135126;27;20435;-80
2022/02/11 01:38:48;;;;;;;10.10;3.40;;;4.10;99.90;;;;;;5134548;27;20526;-85
2022/02/11 01:44:32;;;;;;;7.67;3.03;;;4.20;99.90;;;;;;5118062;27;20495;-84
2022/02/11 01:50:10;;;;;;;12.30;3.37;;;4.30;99.90;;;;;;5134614;27;20422;-86
2022/02/11 01:52:51;;;;;;;5.90;2.73;;;4.30;99.90;;;;;;5135047;27;20899;-85
2022/02/11 01:55:38;;;;;;;8.40;2.93;;;4.30;99.90;;;;;;5133238;27;20448;-87
2022/02/11 01:58:36;;;;;;;12.27;3.33;;;4.30;99.90;;;;;;5134628;27;20454;-87
2022/02/11 02:01:16;;;;;;;7.30;2.73;;;4.30;99.90;;;;;;5134023;28;20526;-85
2022/02/11 02:04:27;;;;;;;10.70;3.73;;;4.40;99.90;;;;;;5134130;28;20490;-84
2022/02/11 02:12:55;;;;;;;8.83;2.80;;;4.40;99.90;;;;;;5134362;28;20454;-84
2022/02/11 02:24:01;;;;;;;9.67;2.70;;;4.40;99.90;;;;;;5134259;28;20619;-82
2022/02/11 02:26:48;;;;;;;8.47;2.83;;;4.40;99.90;;;;;;5134105;28;20502;-84
2022/02/11 02:30:09;;;;;;;10.70;3.10;;;4.50;99.90;;;;;;5133289;28;20423;-86
2022/02/11 02:32:57;;;;;;;14.10;3.07;;;4.60;99.90;;;;;;5133709;28;20514;-86
2022/02/11 02:35:57;;;;;;;9.67;3.53;;;4.60;99.90;;;;;;5133727;28;20435;-85
2022/02/11 02:58:07;;;;;;;9.57;2.57;;;4.80;99.90;;;;;;5137758;27;20557;-81
2022/02/11 03:17:59;;;;;;;11.07;2.97;;;4.80;99.90;;;;;;5137355;27;20233;-86
2022/02/11 03:34:41;;;;;;;15.10;3.20;;;4.80;99.90;;;;;;5137445;27;20414;-84
2022/02/11 03:34:48;;;;;;;10.03;2.70;;;4.70;99.90;;;;;;5136919;27;20507;-86
2022/02/11 03:48:58;;;;;;;13.60;3.67;;;4.90;99.90;;;;;;5072502;28;20466;-86
2022/02/11 04:53:48;;;;;;;13.03;2.70;;;5.20;99.90;;;;;;5135233;27;20190;-85
2022/02/11 04:56:05;;;;;;;13.77;3.10;;;5.20;99.90;;;;;;5135266;27;20515;-84
2022/02/11 05:01:19;;;;;;;9.43;2.63;;;5.30;99.90;;;;;;5135580;27;20245;-81
2022/02/11 05:03:46;;;;;;;11.77;3.23;;;5.30;99.90;;;;;;5135255;27;20236;-80
2022/02/11 05:06:13;;;;;;;13.87;2.93;;;5.40;99.90;;;;;;5136228;27;20188;-79
2022/02/11 05:08:44;;;;;;;8.50;2.30;;;5.30;99.90;;;;;;5135391;27;20199;-84
2022/02/11 05:11:20;;;;;;;13.40;2.90;;;5.30;99.90;;;;;;5135666;27;20243;-81
2022/02/11 05:13:48;;;;;;;10.17;2.80;;;5.40;99.90;;;;;;5134048;27;20294;-84
2022/02/11 05:16:16;;;;;;;17.50;2.67;;;5.40;99.90;;;;;;5134925;27;20517;-82
2022/02/11 05:18:49;;;;;;;11.20;2.77;;;5.40;99.90;;;;;;5135373;27;20196;-83
2022/02/11 05:21:17;;;;;;;12.13;2.77;;;5.40;99.90;;;;;;5135100;27;20624;-80
2022/02/11 05:23:44;;;;;;;12.77;2.63;;;5.40;99.90;;;;;;5134867;27;20239;-80
2022/02/11 05:26:12;;;;;;;13.83;2.87;;;5.40;99.90;;;;;;5134639;27;20644;-81
2022/02/11 05:28:39;;;;;;;13.83;2.60;;;5.60;99.90;;;;;;5135370;27;20192;-81
2022/02/11 05:31:09;;;;;;;14.23;2.60;;;5.60;99.90;;;;;;5136605;27;20207;-80
2022/02/11 05:33:36;;;;;;;8.13;2.07;;;5.60;99.90;;;;;;5136446;27;20180;-81
2022/02/11 05:36:03;;;;;;;12.37;2.87;;;5.60;99.90;;;;;;5135555;27;20195;-83
2022/02/11 05:38:33;;;;;;;11.00;2.40;;;5.70;99.90;;;;;;5134596;27;20192;-80
2022/02/11 05:41:00;;;;;;;12.40;2.70;;;5.70;99.90;;;;;;5135001;27;20192;-82
2022/02/11 05:43:28;;;;;;;12.02;2.80;;;5.60;99.90;;;;;;5135296;27;20439;-82
2022/02/11 05:45:57;;;;;;;9.53;2.57;;;5.80;99.90;;;;;;5135749;27;20188;-86
2022/02/11 05:48:28;;;;;;;8.17;2.50;;;5.80;99.90;;;;;;5134895;27;20211;-87
2022/02/11 05:50:57;;;;;;;11.20;2.60;;;5.70;99.90;;;;;;5134246;27;20214;-83
2022/02/11 05:53:24;;;;;;;11.30;2.17;;;5.70;99.90;;;;;;5134446;27;20203;-85
2022/02/11 05:55:52;;;;;;;7.70;2.77;;;5.60;99.90;;;;;;5134416;27;20210;-82
2022/02/11 05:58:21;;;;;;;11.97;2.63;;;5.60;99.90;;;;;;5134665;27;20200;-85
2022/02/11 06:00:48;;;;;;;12.20;2.90;;;5.70;99.90;;;;;;5129791;27;20200;-84
2022/02/11 06:03:14;;;;;;;15.03;2.77;;;5.60;99.90;;;;;;5113851;28;20299;-86
2022/02/11 06:05:43;;;;;;;11.30;2.83;;;5.60;99.90;;;;;;5113214;28;20215;-82
2022/02/11 06:08:11;;;;;;;11.57;2.70;;;5.60;99.90;;;;;;5113568;28;20244;-81
2022/02/11 06:10:38;;;;;;;10.37;2.93;;;5.50;99.90;;;;;;5113771;28;20224;-84
2022/02/11 06:13:11;;;;;;;11.03;2.20;;;5.50;99.90;;;;;;5114168;28;20577;-81
2022/02/11 06:15:37;;;;;;;8.80;2.40;;;5.50;99.90;;;;;;5113992;28;20200;-85
2022/02/11 06:18:07;;;;;;;8.83;2.60;;;5.50;99.90;;;;;;5113961;28;20196;-81
2022/02/11 06:20:34;;;;;;;10.73;3.17;;;5.50;99.90;;;;;;5113554;28;20219;-82
2022/02/11 06:23:02;;;;;;;13.55;3.55;;;5.40;99.90;;;;;;5112918;28;20435;-82
2022/02/11 06:25:31;;;;;;;8.73;3.27;;;5.40;99.90;;;;;;5117834;28;20232;-86
2022/02/11 06:27:59;;;;;;;23.87;4.10;;;5.50;99.90;;;;;;5135196;27;20655;-86
2022/02/11 06:30:29;;;;;;;14.53;3.17;;;5.50;99.90;;;;;;5138448;27;20192;-83
2022/02/11 06:32:57;;;;;;;12.83;3.03;;;5.40;99.90;;;;;;5138946;27;20204;-82
2022/02/11 06:35:26;;;;;;;11.10;3.27;;;5.30;99.90;;;;;;5138345;27;20212;-84
2022/02/11 06:37:53;;;;;;;13.53;3.70;;;5.30;99.90;;;;;;5137544;27;20203;-87
2022/02/11 06:40:23;;;;;;;17.50;3.77;;;5.30;99.90;;;;;;5138839;27;20211;-86
2022/02/11 06:42:57;;;;;;;9.37;2.83;;;5.30;99.90;;;;;;5138592;27;20188;-85
2022/02/11 06:45:27;;;;;;;11.07;2.60;;;5.20;99.90;;;;;;5137828;27;20232;-87
2022/02/11 06:47:56;;;;;;;12.77;3.27;;;5.10;99.90;;;;;;5138916;27;20206;-86
2022/02/11 06:50:25;;;;;;;9.40;2.80;;;5.10;99.90;;;;;;5142877;27;20203;-85
2022/02/11 06:52:58;;;;;;;9.97;2.47;;;5.10;99.90;;;;;;5143480;27;20192;-86
2022/02/11 06:55:26;;;;;;;10.83;3.00;;;5.10;99.90;;;;;;5143420;27;20200;-86
2022/02/11 06:57:53;;;;;;;14.17;2.80;;;5.10;99.90;;;;;;5142327;27;20654;-87
2022/02/11 07:00:21;;;;;;;13.00;2.70;;;5.00;99.90;;;;;;5142432;27;20202;-85
2022/02/11 07:02:51;;;;;;;13.70;3.85;;;5.10;99.90;;;;;;5137304;27;20415;-83
2022/02/11 07:05:27;;;;;;;12.97;2.87;;;5.20;99.90;;;;;;5137849;27;20222;-82
2022/02/11 07:07:57;;;;;;;12.77;3.30;;;5.10;99.90;;;;;;5137743;27;20195;-83
2022/02/11 07:10:29;;;;;;;14.87;3.07;;;5.10;99.90;;;;;;5137526;27;20192;-81
2022/02/11 07:12:58;;;;;;;14.43;3.10;;;5.10;99.90;;;;;;5137640;27;20192;-81
2022/02/11 07:15:25;;;;;;;9.10;3.30;;;5.10;99.90;;;;;;5137354;27;20184;-85
2022/02/11 07:17:53;;;;;;;10.57;2.70;;;5.10;99.90;;;;;;5136947;27;20220;-81
2022/02/11 07:20:21;;;;;;;14.03;3.00;;;5.10;99.90;;;;;;5137286;27;20204;-84
2022/02/11 07:22:49;;;;;;;13.83;3.60;;;5.00;99.90;;;;;;5137364;27;20204;-82
2022/02/11 07:25:30;;;;;;;12.07;2.80;;;5.10;99.90;;;;;;5136885;27;20223;-84
2022/02/11 07:28:02;;;;;;;9.53;2.77;;;5.10;99.90;;;;;;5137274;27;20199;-82
2022/02/11 07:30:32;;;;;;;11.83;2.73;;;5.10;99.90;;;;;;5137312;27;20448;-82
2022/02/11 07:33:01;;;;;;;13.03;2.90;;;5.20;99.90;;;;;;5136857;27;20432;-84
2022/02/11 07:35:29;;;;;;;12.63;3.03;;;5.10;99.90;;;;;;5136561;27;20545;-81
2022/02/11 07:38:01;;;;;;;11.80;3.50;;;5.20;99.90;;;;;;5137166;27;20253;-85
2022/02/11 07:40:31;;;;;;;13.13;3.03;;;5.10;99.90;;;;;;5136235;27;20192;-85
2022/02/11 07:43:02;;;;;;;13.93;3.03;;;5.10;99.90;;;;;;5136930;27;20192;-84
2022/02/11 07:45:37;;;;;;;15.10;3.13;;;5.10;99.90;;;;;;5131325;27;20243;-81
2022/02/11 07:48:04;;;;;;;11.00;2.73;;;5.00;99.90;;;;;;5135984;27;20267;-83
2022/02/11 07:50:33;;;;;;;12.90;3.70;;;5.10;99.90;;;;;;5136654;27;20191;-85
2022/02/11 07:53:00;;;;;;;17.90;3.47;;;5.00;99.90;;;;;;5136223;27;20646;-82
2022/02/11 07:55:27;;;;;;;13.70;3.67;;;5.00;99.90;;;;;;5136675;27;20203;-86
2022/02/11 07:57:56;;;;;;;11.17;3.20;;;5.00;99.90;;;;;;5135870;27;20204;-81
2022/02/11 08:00:23;;;;;;;16.60;3.73;;;5.00;99.90;;;;;;5136365;27;20448;-84
2022/02/11 08:02:49;;;;;;;11.07;3.00;;;5.20;99.90;;;;;;5136315;27;20211;-82
2022/02/11 08:05:16;;;;;;;14.80;3.27;;;5.10;99.90;;;;;;5136035;27;20486;-83
2022/02/11 08:07:45;;;;;;;16.17;3.17;;;5.10;99.90;;;;;;5136134;27;20238;-83
2022/02/11 08:10:13;;;;;;;14.10;3.63;;;5.20;99.90;;;;;;5136296;27;20236;-81
2022/02/11 08:12:40;;;;;;;14.00;4.00;;;5.20;99.90;;;;;;5136212;27;20237;-80
2022/02/11 08:15:09;;;;;;;16.77;3.88;;;5.20;99.90;;;;;;5135669;27;20476;-82
2022/02/11 08:17:36;;;;;;;8.70;3.13;;;5.20;99.90;;;;;;5135525;27;20223;-81
2022/02/11 08:20:05;;;;;;;14.23;3.77;;;5.30;99.90;;;;;;5136241;27;20204;-84
2022/02/11 08:22:33;;;;;;;13.03;2.73;;;5.30;99.90;;;;;;5135704;27;20196;-81
2022/02/11 08:25:01;;;;;;;12.27;3.50;;;5.30;99.90;;;;;;5135972;27;20234;-80
2022/02/11 08:27:29;;;;;;;12.57;3.30;;;5.30;99.90;;;;;;5135759;27;20211;-81
2022/02/11 08:29:59;;;;;;;22.67;3.40;;;5.50;99.90;;;;;;5135679;27;20226;-79
2022/02/11 08:32:29;;;;;;;11.40;3.33;;;5.40;99.90;;;;;;5135376;27;20192;-81
2022/02/11 08:34:56;;;;;;;10.10;4.03;;;5.40;99.90;;;;;;5135818;27;20236;-83
2022/02/11 08:37:25;;;;;;;11.03;3.20;;;5.40;99.90;;;;;;5129639;27;20192;-80
2022/02/11 08:39:52;;;;;;;13.10;4.03;;;5.30;99.90;;;;;;5134674;27;20203;-82
2022/02/11 08:42:20;;;;;;;13.83;3.70;;;5.30;99.90;;;;;;5135151;27;20200;-82
2022/02/11 08:44:50;;;;;;;13.83;3.63;;;5.40;99.90;;;;;;5135216;27;20254;-83
2022/02/11 08:47:17;;;;;;;13.10;3.97;;;5.50;99.90;;;;;;5133915;27;20195;-81
2022/02/11 08:49:45;;;;;;;18.02;4.00;;;5.40;99.90;;;;;;5134964;27;20522;-82
2022/02/11 08:52:18;;;;;;;11.57;3.73;;;5.40;99.90;;;;;;5136255;27;20191;-88
2022/02/11 08:54:50;;;;;;;17.83;4.17;;;5.60;99.90;;;;;;5136662;27;20207;-90
2022/02/11 08:57:24;;;;;;;17.97;3.13;;;5.60;99.90;;;;;;5136356;27;20212;-89
2022/02/11 08:59:51;;;;;;;15.43;3.57;;;5.60;99.90;;;;;;5135641;27;20204;-81
2022/02/11 09:02:18;;;;;;;12.63;3.50;;;5.60;99.90;;;;;;5135524;27;20203;-82
2022/02/11 09:04:47;;;;;;;17.87;3.37;;;5.70;99.90;;;;;;5135459;27;20219;-82
2022/02/11 09:07:16;;;;;;;18.97;4.13;;;5.80;99.90;;;;;;5135438;27;20287;-81
2022/02/11 09:09:45;;;;;;;11.30;4.10;;;5.80;99.90;;;;;;5135038;27;20203;-80
2022/02/11 09:12:18;;;;;;;15.73;3.83;;;5.90;99.90;;;;;;5134762;27;20196;-83
2022/02/11 09:14:45;;;;;;;18.97;3.63;;;5.90;99.90;;;;;;5134689;27;20207;-80
2022/02/11 09:17:13;;;;;;;12.17;3.33;;;5.90;99.90;;;;;;5134701;27;20705;-81
2022/02/11 09:19:39;;;;;;;12.70;3.33;;;5.70;99.90;;;;;;5135688;27;20188;-83
2022/02/11 09:22:09;;;;;;;11.43;3.60;;;5.70;99.90;;;;;;5134112;27;20196;-87
2022/02/11 09:24:36;;;;;;;13.57;3.90;;;5.80;99.90;;;;;;5135888;27;20431;-89
2022/02/11 09:27:02;;;;;;;22.23;3.97;;;5.90;99.90;;;;;;5136233;27;20210;-85
2022/02/11 09:29:29;;;;;;;16.83;4.00;;;6.00;99.90;;;;;;5134811;27;20309;-89
2022/02/11 09:31:56;;;;;;;16.20;3.50;;;6.10;99.90;;;;;;5135548;27;20200;-87
2022/02/11 09:34:23;;;;;;;13.40;3.13;;;6.20;99.90;;;;;;5135736;27;20203;-87
2022/02/11 09:36:50;;;;;;;15.13;3.20;;;6.10;99.90;;;;;;5134865;27;20643;-88
2022/02/11 09:39:18;;;;;;;14.33;3.47;;;6.20;99.90;;;;;;5135644;27;20211;-86
2022/02/11 09:41:46;;;;;;;11.43;3.30;;;6.30;99.90;;;;;;5135770;27;20200;-86
2022/02/11 09:44:15;;;;;;;17.07;3.53;;;6.40;99.90;;;;;;5134751;27;20290;-85
2022/02/11 09:46:43;;;;;;;17.30;3.50;;;6.50;99.90;;;;;;5134870;27;20223;-86
2022/02/11 09:49:10;;;;;;;15.83;3.60;;;6.50;99.90;;;;;;5134737;27;20217;-85
2022/02/11 09:51:38;;;;;;;17.80;4.10;;;6.50;99.90;;;;;;5135229;27;20192;-82
2022/02/11 09:54:05;;;;;;;13.73;3.30;;;6.50;99.90;;;;;;5135818;27;20669;-86
2022/02/11 09:56:33;;;;;;;13.23;3.90;;;6.70;99.90;;;;;;5135479;27;20202;-86
2022/02/11 09:59:02;;;;;;;12.20;3.43;;;6.80;99.90;;;;;;5134939;27;20295;-86
2022/02/11 10:01:29;;;;;;;15.60;4.13;;;6.80;99.90;;;;;;5135128;27;20200;-89
2022/02/11 10:04:10;;;;;;;14.47;4.37;;;6.70;99.90;;;;;;5135165;27;20263;-84
2022/02/11 10:06:39;;;;;;;14.63;3.53;;;6.60;99.90;;;;;;5134634;28;20650;-85
2022/02/11 10:09:06;;;;;;;16.33;3.77;;;6.60;99.90;;;;;;5135240;28;20218;-89
2022/02/11 10:11:35;;;;;;;14.83;4.40;;;6.60;99.90;;;;;;5134680;27;20599;-85
2022/02/11 10:14:22;;;;;;;12.57;3.37;;;6.60;99.90;;;;;;5134553;28;20204;-89
2022/02/11 10:16:57;;;;;;;13.27;2.90;;;6.70;99.90;;;;;;5134566;27;20223;-87
2022/02/11 10:19:55;;;;;;;16.23;3.90;;;6.70;99.90;;;;;;5134288;28;20203;-86
2022/02/11 10:22:24;;;;;;;16.50;3.17;;;6.80;99.90;;;;;;5134452;28;20242;-88
2022/02/11 10:24:52;;;;;;;11.90;3.07;;;6.80;99.90;;;;;;5134601;28;20215;-87
2022/02/11 10:27:23;;;;;;;14.17;3.50;;;6.80;99.90;;;;;;5134163;28;20203;-87
2022/02/11 10:29:53;;;;;;;12.10;3.10;;;6.80;99.90;;;;;;5134596;28;20203;-86
2022/02/11 10:32:44;;;;;;;18.77;3.23;;;6.80;99.90;;;;;;5134639;28;20219;-87
2022/02/11 10:35:14;;;;;;;10.00;2.60;;;6.90;99.90;;;;;;5133123;28;20627;-87
2022/02/11 10:38:09;;;;;;;20.43;3.70;;;7.00;99.90;;;;;;5133010;28;20203;-85
2022/02/11 10:40:38;;;;;;;12.57;3.20;;;7.10;99.90;;;;;;5136334;28;20207;-87
2022/02/11 10:43:19;;;;;;;10.80;3.53;;;7.30;99.90;;;;;;5135809;28;20200;-81
2022/02/11 10:45:46;;;;;;;15.53;3.70;;;7.40;99.90;;;;;;5134847;28;20216;-85
2022/02/11 10:48:15;;;;;;;14.23;2.77;;;7.50;99.90;;;;;;5134576;28;20200;-84
2022/02/11 10:50:47;;;;;;;13.53;3.00;;;7.50;99.90;;;;;;5134765;27;20219;-80
2022/02/11 10:53:23;;;;;;;9.83;2.70;;;7.50;99.90;;;;;;5134955;27;20215;-79
2022/02/11 10:55:51;;;;;;;10.07;2.63;;;7.60;99.90;;;;;;5134788;28;20203;-82
2022/02/11 10:58:20;;;;;;;10.37;2.73;;;7.60;99.90;;;;;;5133839;28;20191;-81
2022/02/11 11:00:47;;;;;;;13.70;2.70;;;7.80;99.90;;;;;;5133070;28;20207;-84
2022/02/11 11:03:17;;;;;;;13.87;2.73;;;7.80;99.90;;;;;;5128109;28;20207;-81
2022/02/11 11:05:45;;;;;;;11.40;2.43;;;7.90;99.90;;;;;;5132778;27;20208;-84
2022/02/11 11:08:15;;;;;;;14.33;3.10;;;7.80;99.90;;;;;;5132914;27;20204;-84
2022/02/11 11:10:45;;;;;;;16.63;2.77;;;7.70;99.90;;;;;;5134491;27;20686;-81
2022/02/11 11:13:14;;;;;;;9.70;3.07;;;7.70;99.90;;;;;;5138981;27;20272;-87
2022/02/11 11:15:46;;;;;;;11.07;2.40;;;7.60;99.90;;;;;;5137586;27;20256;-79
2022/02/11 11:18:13;;;;;;;13.83;3.00;;;7.60;99.90;;;;;;5137907;27;20192;-84
2022/02/11 11:20:45;;;;;;;13.23;2.87;;;7.50;99.90;;;;;;5137446;27;20295;-79
2022/02/11 11:23:20;;;;;;;11.77;3.03;;;7.50;99.90;;;;;;5137457;27;20606;-84
2022/02/11 11:25:54;;;;;;;21.40;3.10;;;7.60;99.90;;;;;;5136782;27;20223;-81
2022/02/11 11:28:45;;;;;;;8.00;2.00;;;7.60;99.90;;;;;;5136905;27;20663;-82
2022/02/11 11:31:23;;;;;;;18.40;2.77;;;7.60;99.90;;;;;;5137022;27;20198;-86
2022/02/11 11:33:53;;;;;;;12.50;2.73;;;7.60;99.90;;;;;;5137213;27;20188;-87
2022/02/11 11:36:22;;;;;;;20.57;2.70;;;7.60;99.90;;;;;;5137133;27;20248;-81
2022/02/11 11:38:59;;;;;;;10.27;2.33;;;7.70;99.90;;;;;;5137129;27;20189;-86
2022/02/11 11:41:28;;;;;;;8.23;2.20;;;7.80;99.90;;;;;;5135815;27;20210;-86
2022/02/11 11:43:56;;;;;;;8.93;2.10;;;7.70;99.90;;;;;;5137057;27;20192;-86
2022/02/11 11:46:33;;;;;;;8.77;2.33;;;7.80;99.90;;;;;;5136707;27;20238;-85
2022/02/11 11:49:01;;;;;;;13.33;2.83;;;7.80;99.90;;;;;;5136906;27;20406;-82
2022/02/11 11:51:30;;;;;;;9.17;2.30;;;7.90;99.90;;;;;;5136142;27;20194;-84
2022/02/11 11:54:22;;;;;;;12.13;2.77;;;8.00;99.90;;;;;;5134787;27;20196;-85
2022/02/11 11:56:55;;;;;;;12.77;2.30;;;7.80;99.90;;;;;;5133871;27;20207;-85
2022/02/11 11:59:24;;;;;;;9.37;2.57;;;7.80;99.90;;;;;;5136949;27;20215;-79
2022/02/11 12:01:56;;;;;;;13.93;2.60;;;8.00;99.90;;;;;;5134021;27;20257;-80
2022/02/11 12:04:26;;;;;;;12.13;2.30;;;8.30;99.90;;;;;;5116519;28;20193;-79
2022/02/11 12:06:54;;;;;;;5.67;2.23;;;8.20;99.90;;;;;;5115897;28;20232;-86
2022/02/11 12:09:22;;;;;;;12.17;2.57;;;8.20;99.90;;;;;;5114977;28;20654;-82
2022/02/11 12:11:53;;;;;;;10.97;2.50;;;8.00;99.90;;;;;;5115358;28;20201;-81
2022/02/11 12:14:20;;;;;;;11.80;3.37;;;7.90;99.90;;;;;;5115665;28;20254;-81
2022/02/11 12:16:49;;;;;;;10.93;2.33;;;7.90;99.90;;;;;;5115508;28;20255;-84
2022/02/11 12:19:17;;;;;;;13.87;2.63;;;8.00;99.90;;;;;;5115547;28;20207;-81
2022/02/11 12:21:46;;;;;;;9.20;2.57;;;8.00;99.90;;;;;;5115921;28;20220;-83
2022/02/11 12:29:55;;;;;;;9.73;2.00;;;8.30;99.90;;;;;;5115189;28;20261;-84
2022/02/11 12:32:23;;;;;;;15.47;2.13;;;8.20;99.90;;;;;;5115072;28;20189;-83
2022/02/11 12:34:56;;;;;;;7.53;2.00;;;8.10;99.90;;;;;;5114744;28;20566;-81
2022/02/11 12:37:25;;;;;;;8.57;2.43;;;7.90;99.90;;;;;;5115249;28;20188;-80
2022/02/11 12:40:01;;;;;;;14.03;2.50;;;7.90;99.90;;;;;;5115658;28;20197;-88
2022/02/11 12:42:31;;;;;;;13.33;2.43;;;8.00;99.90;;;;;;5127774;27;20203;-91
2022/02/11 12:45:00;;;;;;;14.40;2.90;;;7.80;99.90;;;;;;5129877;27;20230;-87
2022/02/11 12:47:28;;;;;;;13.90;2.67;;;7.70;99.90;;;;;;5128539;27;20219;-87
2022/02/11 12:49:57;;;;;;;12.50;2.77;;;7.70;99.90;;;;;;5130287;27;20675;-83
2022/02/11 12:52:26;;;;;;;13.73;2.53;;;7.80;99.90;;;;;;5138524;27;20204;-85
2022/02/11 12:55:01;;;;;;;11.23;2.67;;;7.60;99.90;;;;;;5120292;27;20249;-84
2022/02/11 12:57:32;;;;;;;12.70;2.30;;;7.60;99.90;;;;;;5118140;28;20192;-81
2022/02/11 13:00:00;;;;;;;20.50;3.10;;;7.70;99.90;;;;;;5116471;28;20195;-83
2022/02/11 13:02:29;;;;;;;13.67;2.50;;;7.80;99.90;;;;;;5114814;28;20291;-84
2022/02/11 13:05:08;;;;;;;14.70;2.67;;;7.80;99.90;;;;;;5115554;28;20296;-81
2022/02/11 13:07:38;;;;;;;13.40;3.40;;;7.90;99.90;;;;;;5115861;28;20228;-84
2022/02/11 13:10:07;;;;;;;10.50;1.97;;;7.90;99.90;;;;;;5115920;28;20272;-81
2022/02/11 13:12:42;;;;;;;13.57;2.50;;;8.00;99.90;;;;;;5118526;27;20200;-84
2022/02/11 13:15:13;;;;;;;9.67;2.23;;;7.90;99.90;;;;;;5113715;28;20200;-82
2022/02/11 13:17:41;;;;;;;10.90;2.93;;;7.70;99.90;;;;;;5120764;27;20861;-84
2022/02/11 13:20:13;;;;;;;9.17;2.50;;;7.70;99.90;;;;;;5120845;27;20664;-80
2022/02/11 13:22:42;;;;;;;9.83;2.13;;;7.70;99.90;;;;;;5127733;27;20203;-81
2022/02/11 13:25:10;;;;;;;14.50;2.47;;;7.90;99.90;;;;;;5114121;28;20459;-81
2022/02/11 13:27:46;;;;;;;14.97;3.00;;;7.90;99.90;;;;;;5115721;28;20477;-89
2022/02/11 13:30:16;;;;;;;12.50;2.20;;;8.00;99.90;;;;;;5113975;28;20199;-90
2022/02/11 13:32:43;;;;;;;13.27;2.90;;;8.10;99.90;;;;;;5114461;28;20651;-85
2022/02/11 13:35:15;;;;;;;8.93;1.87;;;8.20;99.90;;;;;;5114389;28;20204;-84
2022/02/11 13:37:45;;;;;;;11.30;2.50;;;8.30;99.90;;;;;;5114208;28;20201;-87
2022/02/11 13:40:21;;;;;;;11.73;2.30;;;8.20;99.90;;;;;;5116187;28;20196;-88
2022/02/11 13:43:00;;;;;;;9.23;2.87;;;8.30;99.90;;;;;;5115001;28;20207;-86
2022/02/11 13:45:28;;;;;;;7.37;2.03;;;8.50;99.90;;;;;;5114667;28;20211;-88
2022/02/11 13:48:09;;;;;;;13.23;2.20;;;8.40;99.90;;;;;;5114705;28;20228;-87
2022/02/11 13:50:59;;;;;;;7.93;2.20;;;8.40;99.90;;;;;;5129828;27;20222;-89
2022/02/11 13:53:30;;;;;;;11.17;2.60;;;8.40;99.90;;;;;;5137370;27;20210;-88
2022/02/11 13:55:57;;;;;;;19.90;3.00;;;8.20;99.90;;;;;;5135001;27;20200;-86
2022/02/11 13:58:27;;;;;;;11.37;2.73;;;8.10;99.90;;;;;;5136754;27;20568;-88
2022/02/11 14:00:54;;;;;;;14.85;3.83;;;8.20;99.90;;;;;;5137292;27;20453;-87
2022/02/11 14:03:23;;;;;;;9.13;2.40;;;8.30;99.90;;;;;;5138871;27;20215;-89
2022/02/11 14:05:52;;;;;;;11.53;2.27;;;8.40;99.90;;;;;;5140989;28;20286;-88
2022/02/11 14:08:23;;;;;;;8.37;1.80;;;8.50;99.90;;;;;;5138743;28;20204;-87
2022/02/11 14:11:08;;;;;;;6.40;1.93;;;8.40;99.90;;;;;;5138285;28;20202;-88
2022/02/11 14:13:35;;;;;;;9.93;2.33;;;8.20;99.90;;;;;;5139609;28;20203;-87
2022/02/11 14:16:02;;;;;;;5.83;1.70;;;8.00;99.90;;;;;;5139308;28;20595;-88
2022/02/11 14:18:30;;;;;;;6.17;1.90;;;8.00;99.90;;;;;;5136950;28;20230;-88
2022/02/11 14:20:57;;;;;;;5.07;1.57;;;8.00;99.90;;;;;;5135948;28;20206;-89
2022/02/11 14:23:25;;;;;;;7.10;1.90;;;8.10;99.90;;;;;;5136264;28;20206;-89
2022/02/11 14:25:52;;;;;;;5.10;1.67;;;8.00;99.90;;;;;;5137014;28;20215;-88
2022/02/11 14:28:20;;;;;;;9.47;2.23;;;7.90;99.90;;;;;;5136197;28;20685;-85
2022/02/11 14:30:48;;;;;;;8.87;2.33;;;8.00;99.90;;;;;;5135286;28;20196;-89
2022/02/11 14:33:15;;;;;;;6.60;2.07;;;8.10;99.90;;;;;;5136048;28;20202;-87
2022/02/11 14:35:42;;;;;;;10.90;2.67;;;8.10;99.90;;;;;;5136049;28;20639;-86
2022/02/11 14:38:09;;;;;;;10.50;2.33;;;8.10;99.90;;;;;;5136809;28;20203;-88
2022/02/11 14:41:45;;;;;;;6.67;2.20;;;8.10;99.90;;;;;;5135991;28;20196;-88
2022/02/11 14:43:27;;;;;;;9.90;1.87;;;8.10;99.90;;;;;;5136281;28;20263;-88
2022/02/11 14:45:55;;;;;;;8.17;2.23;;;8.10;99.90;;;;;;5142551;27;20227;-87
2022/02/11 14:48:22;;;;;;;11.00;2.47;;;8.20;99.90;;;;;;5150208;27;20192;-89
2022/02/11 14:50:49;;;;;;;9.30;2.30;;;8.10;99.90;;;;;;5151805;27;20196;-87
2022/02/11 14:53:16;;;;;;;11.00;2.23;;;8.00;99.90;;;;;;5141244;27;20207;-87
2022/02/11 14:55:45;;;;;;;9.77;2.20;;;8.00;99.90;;;;;;5139374;27;20200;-88
2022/02/11 14:58:12;;;;;;;8.47;1.97;;;8.00;99.90;;;;;;5138933;27;20188;-89
2022/02/11 15:00:40;;;;;;;10.70;1.80;;;8.00;99.90;;;;;;5139257;27;20267;-89
2022/02/11 15:03:08;;;;;;;10.37;2.43;;;7.90;99.90;;;;;;5139431;27;20219;-88
2022/02/11 15:05:35;;;;;;;14.40;2.60;;;7.80;99.90;;;;;;5139604;27;20195;-90
2022/02/11 15:08:02;;;;;;;7.83;2.23;;;7.80;99.90;;;;;;5137299;27;20231;-88
2022/02/11 15:10:29;;;;;;;7.70;2.20;;;7.70;99.90;;;;;;5138689;27;20283;-89
2022/02/11 15:12:58;;;;;;;10.57;2.50;;;7.70;99.90;;;;;;5138597;27;20442;-88
2022/02/11 15:15:29;;;;;;;11.30;2.33;;;7.80;99.90;;;;;;5138378;27;20211;-88
2022/02/11 15:17:56;;;;;;;12.37;2.43;;;7.80;99.90;;;;;;5138258;27;20220;-88
2022/02/11 15:20:24;;;;;;;13.17;2.23;;;7.90;99.90;;;;;;5138927;27;20196;-88
2022/02/11 15:22:50;;;;;;;8.27;2.10;;;7.90;99.90;;;;;;5137762;27;20196;-88
2022/02/11 15:25:17;;;;;;;10.97;2.27;;;7.90;99.90;;;;;;5138409;27;20211;-86
2022/02/11 15:27:45;;;;;;;12.83;2.50;;;8.10;99.90;;;;;;5138155;27;20230;-87
2022/02/11 15:30:14;;;;;;;8.50;2.20;;;8.00;99.90;;;;;;5138958;27;20203;-86
2022/02/11 15:32:42;;;;;;;9.57;2.20;;;8.30;99.90;;;;;;5137496;27;20231;-86
2022/02/11 15:35:09;;;;;;;9.17;2.03;;;8.60;99.90;;;;;;5138443;27;20666;-87
2022/02/11 15:37:36;;;;;;;7.00;1.83;;;8.50;99.90;;;;;;5138309;27;20203;-87
2022/02/11 15:40:04;;;;;;;8.70;2.43;;;8.50;99.90;;;;;;5137399;27;20679;-87
2022/02/11 15:42:33;;;;;;;9.50;2.50;;;8.60;99.90;;;;;;5137688;27;20206;-86
2022/02/11 15:45:03;;;;;;;10.07;2.20;;;8.40;99.90;;;;;;5137963;27;20211;-87
2022/02/11 15:47:33;;;;;;;9.73;2.40;;;8.40;99.90;;;;;;5136969;27;20230;-88
2022/02/11 15:50:00;;;;;;;18.10;3.60;;;8.40;99.90;;;;;;5136878;27;20438;-87
2022/02/11 15:52:27;;;;;;;10.93;2.70;;;8.30;99.90;;;;;;5137581;27;20254;-88
2022/02/11 15:54:54;;;;;;;11.93;2.53;;;8.30;99.90;;;;;;5137818;27;20200;-88
2022/02/11 15:57:22;;;;;;;12.40;2.33;;;8.30;99.90;;;;;;5137681;27;20211;-89
2022/02/11 15:59:50;;;;;;;10.93;2.50;;;8.30;99.90;;;;;;5138139;27;20195;-87
2022/02/11 16:02:17;;;;;;;13.27;2.70;;;8.30;99.90;;;;;;5138210;27;20210;-89
2022/02/11 16:04:46;;;;;;;13.90;2.80;;;8.20;99.90;;;;;;5137594;27;20213;-86
2022/02/11 16:07:13;;;;;;;18.87;2.33;;;8.10;99.90;;;;;;5137986;27;20250;-89
2022/02/11 16:09:40;;;;;;;15.73;2.63;;;8.00;99.90;;;;;;5137883;27;20200;-87